createdAt,value
2018-11-22T00:01:07.910Z,4.44
2018-11-22T00:03:43.418Z,4.47
2018-11-22T00:06:18.482Z,4.49
2018-11-22T00:08:53.383Z,4.44
2018-11-22T00:11:28.437Z,4.44
2018-11-22T00:14:03.486Z,4.43
2018-11-22T00:16:38.725Z,4.47
2018-11-22T00:19:13.714Z,4.51
2018-11-22T00:21:48.407Z,4.56
2018-11-22T00:24:23.284Z,4.56
2018-11-22T00:26:58.318Z,4.57
2018-11-22T00:29:33.283Z,4.55
2018-11-22T00:32:08.297Z,4.57
2018-11-22T00:34:42.891Z,4.60
2018-11-22T00:37:17.331Z,4.66
2018-11-22T00:39:52.082Z,4.59
2018-11-22T00:42:26.916Z,4.60
2018-11-22T00:44:59.867Z,4.63
2018-11-22T00:47:37.529Z,4.59
2018-11-22T00:50:12.286Z,4.54
2018-11-22T00:52:53.081Z,4.57
2018-11-22T00:55:29.103Z,4.62
2018-11-22T00:58:04.052Z,4.69
2018-11-22T01:00:39.515Z,4.59
2018-11-22T01:03:14.278Z,4.59
2018-11-22T01:05:49.284Z,4.59
2018-11-22T01:08:24.285Z,4.67
2018-11-22T01:10:59.142Z,4.52
2018-11-22T01:13:33.791Z,4.48
2018-11-22T01:16:08.779Z,4.44
2018-11-22T01:18:43.458Z,4.45
2018-11-22T01:21:16.276Z,4.45
2018-11-22T01:23:50.912Z,4.43
2018-11-22T01:26:25.426Z,4.42
2018-11-22T01:28:59.954Z,4.39
2018-11-22T01:31:34.486Z,4.45
2018-11-22T01:34:09.374Z,4.43
2018-11-22T01:36:43.949Z,4.43
2018-11-22T01:39:18.736Z,4.45
2018-11-22T01:41:53.295Z,4.45
2018-11-22T01:44:28.387Z,4.45
2018-11-22T01:49:29.452Z,4.59
2018-11-22T01:52:04.022Z,4.47
2018-11-22T01:54:38.593Z,4.46
2018-11-22T01:57:13.285Z,4.50
2018-11-22T01:59:48.281Z,4.54
2018-11-22T02:02:21.286Z,4.62
2018-11-22T02:04:55.957Z,4.60
2018-11-22T02:07:30.905Z,4.59
2018-11-22T02:10:05.402Z,4.59
2018-11-22T02:12:56.971Z,4.60
2018-11-22T02:15:32.292Z,4.57
2018-11-22T02:18:06.894Z,4.55
2018-11-22T02:20:42.140Z,4.54
2018-11-22T02:23:17.086Z,4.51
2018-11-22T02:25:52.272Z,4.46
2018-11-22T02:28:26.796Z,4.44
2018-11-22T02:31:01.290Z,4.52
2018-11-22T02:33:35.948Z,4.52
2018-11-22T02:36:10.388Z,4.50
2018-11-22T02:38:44.952Z,4.47
2018-11-22T02:41:19.445Z,4.52
2018-11-22T02:43:54.286Z,4.60
2018-11-22T02:46:27.128Z,4.64
2018-11-22T02:49:01.951Z,4.65
2018-11-22T02:51:36.964Z,4.64
2018-11-22T02:54:11.922Z,4.63
2018-11-22T02:56:46.456Z,4.63
2018-11-22T02:59:20.953Z,4.65
2018-11-22T03:01:55.560Z,4.65
2018-11-22T03:04:30.083Z,4.65
2018-11-22T03:07:05.171Z,4.66
2018-11-22T03:09:39.710Z,4.69
2018-11-22T03:12:15.281Z,4.70
2018-11-22T03:14:50.113Z,4.70
2018-11-22T03:17:24.799Z,4.69
2018-11-22T03:19:59.754Z,4.68
2018-11-22T03:22:34.297Z,4.67
2018-11-22T03:25:10.382Z,4.67
2018-11-22T03:27:51.460Z,4.65
2018-11-22T03:30:26.748Z,4.64
2018-11-22T03:33:02.415Z,4.64
2018-11-22T03:35:37.448Z,4.68
2018-11-22T03:38:12.148Z,4.74
2018-11-22T03:40:46.961Z,4.75
2018-11-22T03:43:25.301Z,4.70
2018-11-22T03:45:59.972Z,4.68
2018-11-22T03:48:34.691Z,4.70
2018-11-22T03:51:10.123Z,4.70
2018-11-22T03:53:44.497Z,4.69
2018-11-22T03:56:17.305Z,4.70
2018-11-22T03:58:52.338Z,4.71
2018-11-22T04:01:26.962Z,4.71
2018-11-22T04:04:01.567Z,4.74
2018-11-22T04:06:36.330Z,4.72
2018-11-22T04:09:15.444Z,4.66
2018-11-22T04:11:48.293Z,4.66
2018-11-22T04:14:22.922Z,4.69
2018-11-22T04:16:57.802Z,4.67
2018-11-22T04:19:30.343Z,4.64
2018-11-22T04:22:03.076Z,4.64
2018-11-22T04:24:37.509Z,4.70
2018-11-22T04:27:12.340Z,4.70
2018-11-22T04:29:46.961Z,4.71
2018-11-22T04:32:21.450Z,4.74
2018-11-22T04:34:56.322Z,4.72
2018-11-22T04:37:30.965Z,4.72
2018-11-22T04:40:05.710Z,4.74
2018-11-22T04:42:40.586Z,4.69
2018-11-22T04:45:15.412Z,4.69
2018-11-22T04:48:08.486Z,4.67
2018-11-22T04:50:43.317Z,4.65
2018-11-22T04:53:17.955Z,4.67
2018-11-22T04:55:52.514Z,4.67
2018-11-22T04:58:25.288Z,4.72
2018-11-22T05:00:58.292Z,4.70
2018-11-22T05:03:33.283Z,4.72
2018-11-22T05:06:08.297Z,4.69
2018-11-22T05:08:43.352Z,4.77
2018-11-22T05:11:18.088Z,4.76
2018-11-22T05:13:52.541Z,4.85
2018-11-22T05:16:28.399Z,4.88
2018-11-22T05:19:03.307Z,4.85
2018-11-22T05:21:36.115Z,4.85
2018-11-22T05:24:11.114Z,4.88
2018-11-22T05:26:45.488Z,4.89
2018-11-22T05:29:20.331Z,4.90
2018-11-22T05:31:55.298Z,4.90
2018-11-22T05:34:29.966Z,4.94
2018-11-22T05:37:04.963Z,4.94
2018-11-22T05:39:39.377Z,4.95
2018-11-22T05:42:12.092Z,4.91
2018-11-22T05:44:46.644Z,4.90
2018-11-22T05:47:21.292Z,4.87
2018-11-22T05:49:55.790Z,4.87
2018-11-22T05:52:30.532Z,4.86
2018-11-22T05:55:04.989Z,4.84
2018-11-22T05:57:40.299Z,4.78
2018-11-22T06:00:26.288Z,4.81
2018-11-22T06:03:06.565Z,4.81
2018-11-22T06:05:41.393Z,4.77
2018-11-22T06:08:14.126Z,4.77
2018-11-22T06:10:49.338Z,4.83
2018-11-22T06:13:22.295Z,4.83
2018-11-22T06:15:56.668Z,4.87
2018-11-22T06:18:31.495Z,4.83
2018-11-22T06:21:04.452Z,4.84
2018-11-22T06:23:39.299Z,4.84
2018-11-22T06:26:12.308Z,4.84
2018-11-22T06:28:47.297Z,4.89
2018-11-22T06:31:22.292Z,4.88
2018-11-22T06:33:58.295Z,4.91
2018-11-22T06:36:33.335Z,4.86
2018-11-22T06:39:06.382Z,4.84
2018-11-22T06:41:41.490Z,4.84
2018-11-22T06:44:14.307Z,4.87
2018-11-22T06:46:47.310Z,4.84
2018-11-22T06:49:22.322Z,4.82
2018-11-22T06:51:58.336Z,4.81
2018-11-22T06:54:33.311Z,4.75
2018-11-22T06:57:08.301Z,4.74
2018-11-22T06:59:41.290Z,4.69
2018-11-22T07:02:14.294Z,4.69
2018-11-22T07:04:47.297Z,4.73
2018-11-22T07:07:20.304Z,4.72
2018-11-22T07:09:53.501Z,4.73
2018-11-22T07:12:28.433Z,4.69
2018-11-22T07:15:01.303Z,4.73
2018-11-22T07:17:34.399Z,4.73
2018-11-22T07:20:14.462Z,4.74
2018-11-22T07:22:50.298Z,4.77
2018-11-22T07:25:24.437Z,4.78
2018-11-22T07:28:00.161Z,4.76
2018-11-22T07:30:42.455Z,4.76
2018-11-22T07:33:11.917Z,4.77
2018-11-22T07:35:46.955Z,4.75
2018-11-22T07:38:22.290Z,4.80
2018-11-22T07:40:55.306Z,4.82
2018-11-22T07:43:28.451Z,4.82
2018-11-22T07:46:03.301Z,4.86
2018-11-22T07:48:36.511Z,4.86
2018-11-22T07:51:11.757Z,4.86
2018-11-22T07:53:46.964Z,4.86
2018-11-22T07:56:24.458Z,4.88
2018-11-22T07:58:59.314Z,4.88
2018-11-22T08:01:34.462Z,4.88
2018-11-22T08:04:07.300Z,4.88
2018-11-22T08:06:40.284Z,4.91
2018-11-22T08:09:13.299Z,4.89
2018-11-22T08:11:46.293Z,4.85
2018-11-22T08:14:19.290Z,4.86
2018-11-22T08:16:52.300Z,4.88
2018-11-22T08:19:56.336Z,5.01
2018-11-22T08:22:31.300Z,5.02
2018-11-22T08:25:06.394Z,5.05
2018-11-22T08:27:41.763Z,5.04
2018-11-22T08:30:17.909Z,5.07
2018-11-22T08:32:54.820Z,5.09
2018-11-22T08:35:29.638Z,5.06
2018-11-22T08:38:06.327Z,5.08
2018-11-22T08:40:41.447Z,5.20
2018-11-22T08:43:22.378Z,5.25
2018-11-22T08:45:57.418Z,5.28
2018-11-22T08:48:32.308Z,5.33
2018-11-22T08:51:07.307Z,5.42
2018-11-22T08:53:40.297Z,5.47
2018-11-22T08:56:13.293Z,5.48
2018-11-22T08:58:46.381Z,5.54
2018-11-22T09:01:21.309Z,5.54
2018-11-22T09:03:56.295Z,5.55
2018-11-22T09:06:29.296Z,5.54
2018-11-22T09:09:04.417Z,5.65
2018-11-22T09:11:39.298Z,5.62
2018-11-22T09:14:12.364Z,5.67
2018-11-22T09:16:45.291Z,5.73
2018-11-22T09:19:19.291Z,5.71
2018-11-22T09:21:52.441Z,6.01
2018-11-22T09:24:27.501Z,6.06
2018-11-22T09:27:02.293Z,6.06
2018-11-22T09:29:39.564Z,6.06
2018-11-22T09:32:12.590Z,6.09
2018-11-22T09:34:47.415Z,6.02
2018-11-22T09:37:22.296Z,6.11
2018-11-22T09:39:55.292Z,6.11
2018-11-22T09:42:28.294Z,6.23
2018-11-22T09:45:03.406Z,6.43
2018-11-22T09:47:38.376Z,6.35
2018-11-22T09:50:14.386Z,6.35
2018-11-22T09:52:48.302Z,6.45
2018-11-22T09:55:23.335Z,6.43
2018-11-22T09:57:58.737Z,6.48
2018-11-22T10:00:33.412Z,6.42
2018-11-22T10:03:09.479Z,6.42
2018-11-22T10:05:44.611Z,6.48
2018-11-22T10:08:26.800Z,6.50
2018-11-22T10:11:01.797Z,6.50
2018-11-22T10:13:36.743Z,6.48
2018-11-22T10:16:11.577Z,6.45
2018-11-22T10:18:48.561Z,6.21
2018-11-22T10:21:23.370Z,6.20
2018-11-22T10:23:58.367Z,6.20
2018-11-22T10:26:33.401Z,6.24
2018-11-22T10:29:08.408Z,6.20
2018-11-22T10:31:43.808Z,6.20
2018-11-22T10:34:18.944Z,6.20
2018-11-22T10:36:56.262Z,6.20
2018-11-22T10:39:31.346Z,6.26
2018-11-22T10:42:06.318Z,6.30
2018-11-22T10:44:41.145Z,6.27
2018-11-22T10:47:16.300Z,6.27
2018-11-22T10:49:51.520Z,6.25
2018-11-22T10:52:26.306Z,6.27
2018-11-22T10:55:01.293Z,6.29
2018-11-22T10:57:34.289Z,6.26
2018-11-22T11:00:10.298Z,6.25
2018-11-22T11:03:00.594Z,6.25
2018-11-22T11:05:53.299Z,6.30
2018-11-22T11:08:30.320Z,6.25
2018-11-22T11:11:05.455Z,6.25
2018-11-22T11:13:40.302Z,6.32
2018-11-22T11:16:13.278Z,6.41
2018-11-22T11:18:48.383Z,6.45
2018-11-22T11:21:21.678Z,6.49
2018-11-22T11:23:56.294Z,6.55
2018-11-22T11:26:31.291Z,6.54
2018-11-22T11:29:12.581Z,6.61
2018-11-22T11:31:42.963Z,6.68
2018-11-22T11:34:18.301Z,6.62
2018-11-22T11:36:51.464Z,6.58
2018-11-22T11:39:26.419Z,6.63
2018-11-22T11:42:01.309Z,6.60
2018-11-22T11:44:36.295Z,6.57
2018-11-22T11:47:09.470Z,6.55
2018-11-22T11:49:44.298Z,6.53
2018-11-22T11:52:19.311Z,6.56
2018-11-22T11:54:52.290Z,6.67
2018-11-22T11:57:25.287Z,6.71
2018-11-22T12:00:00.306Z,6.79
2018-11-22T12:02:33.285Z,6.84
2018-11-22T12:05:06.298Z,6.91
2018-11-22T12:07:41.894Z,6.90
2018-11-22T12:10:21.955Z,6.93
2018-11-22T12:12:57.285Z,7.01
2018-11-22T12:15:30.303Z,6.97
2018-11-22T12:18:03.341Z,6.95
2018-11-22T12:20:36.457Z,6.95
2018-11-22T12:23:11.713Z,6.81
2018-11-22T12:25:46.797Z,6.81
2018-11-22T12:28:23.653Z,6.77
2018-11-22T12:31:06.111Z,6.89
2018-11-22T12:33:42.524Z,6.90
2018-11-22T12:36:26.584Z,6.90
2018-11-22T12:39:01.291Z,6.89
2018-11-22T12:41:36.425Z,6.91
2018-11-22T12:44:11.736Z,6.99
2018-11-22T12:46:46.959Z,7.02
2018-11-22T12:49:24.377Z,7.03
2018-11-22T12:51:59.442Z,6.99
2018-11-22T12:54:34.715Z,6.95
2018-11-22T12:57:10.741Z,6.95
2018-11-22T12:59:45.949Z,6.92
2018-11-22T13:02:23.425Z,6.80
2018-11-22T13:04:56.307Z,6.74
2018-11-22T13:07:31.286Z,6.70
2018-11-22T13:10:04.286Z,6.67
2018-11-22T13:12:37.146Z,6.61
2018-11-22T13:15:15.330Z,6.67
2018-11-22T13:17:50.284Z,6.67
2018-11-22T13:20:25.450Z,6.65
2018-11-22T13:23:00.481Z,6.60
2018-11-22T13:25:33.283Z,6.56
2018-11-22T13:28:06.313Z,6.52
2018-11-22T13:30:39.419Z,6.56
2018-11-22T13:33:15.491Z,6.53
2018-11-22T13:35:50.415Z,6.53
2018-11-22T13:38:25.384Z,6.52
2018-11-22T13:41:00.285Z,6.43
2018-11-22T13:43:34.309Z,6.43
2018-11-22T13:46:07.124Z,6.50
2018-11-22T13:51:08.449Z,6.57
2018-11-22T13:53:41.374Z,6.52
2018-11-22T13:56:15.958Z,6.43
2018-11-22T13:58:51.281Z,6.31
2018-11-22T14:01:24.348Z,6.31
2018-11-22T14:03:57.289Z,6.39
2018-11-22T14:06:30.278Z,6.44
2018-11-22T14:09:05.455Z,6.33
2018-11-22T14:11:40.602Z,6.33
2018-11-22T14:14:15.438Z,6.20
2018-11-22T14:16:50.741Z,6.17
2018-11-22T14:19:25.281Z,6.14
2018-11-22T14:21:58.284Z,6.14
2018-11-22T14:24:33.343Z,6.18
2018-11-22T14:27:08.398Z,6.21
2018-11-22T14:29:43.330Z,6.14
2018-11-22T14:32:16.291Z,6.13
2018-11-22T14:34:51.282Z,6.13
2018-11-22T14:37:24.286Z,6.05
2018-11-22T14:39:59.399Z,6.11
2018-11-22T14:42:34.386Z,6.12
2018-11-22T14:45:07.293Z,6.11
2018-11-22T14:47:40.284Z,6.09
2018-11-22T14:50:26.957Z,6.12
2018-11-22T14:53:23.365Z,6.13
2018-11-22T14:55:58.473Z,6.14
2018-11-22T14:58:35.956Z,6.14
2018-11-22T15:01:11.430Z,6.09
2018-11-22T15:03:46.311Z,6.15
2018-11-22T15:06:19.287Z,6.15
2018-11-22T15:08:54.425Z,6.04
2018-11-22T15:11:29.428Z,6.03
2018-11-22T15:14:04.285Z,6.06
2018-11-22T15:16:37.288Z,6.10
2018-11-22T15:19:12.436Z,6.09
2018-11-22T15:21:47.289Z,6.09
2018-11-22T15:24:22.294Z,6.03
2018-11-22T15:26:57.282Z,6.03
2018-11-22T15:29:32.284Z,6.02
2018-11-22T15:32:05.296Z,6.06
2018-11-22T15:34:40.331Z,6.08
2018-11-22T15:37:15.329Z,6.02
2018-11-22T15:39:50.305Z,6.00
2018-11-22T15:42:23.293Z,6.07
2018-11-22T15:44:58.327Z,5.92
2018-11-22T15:47:31.282Z,5.92
2018-11-22T15:50:04.333Z,5.94
2018-11-22T15:52:39.333Z,5.97
2018-11-22T15:55:20.843Z,5.96
2018-11-22T15:57:52.278Z,5.92
2018-11-22T16:00:31.022Z,5.92
2018-11-22T16:03:06.973Z,5.91
2018-11-22T16:05:42.354Z,5.91
2018-11-22T16:08:17.306Z,5.88
2018-11-22T16:10:50.307Z,5.77
2018-11-22T16:13:25.979Z,5.74
2018-11-22T16:16:00.963Z,5.69
2018-11-22T16:18:44.410Z,5.74
2018-11-22T16:21:19.402Z,5.75
2018-11-22T16:23:52.279Z,5.70
2018-11-22T16:26:25.102Z,5.59
2018-11-22T16:29:00.410Z,5.62
2018-11-22T16:31:34.956Z,5.58
2018-11-22T16:34:09.956Z,5.59
2018-11-22T16:36:45.187Z,5.67
2018-11-22T16:39:19.703Z,5.71
2018-11-22T16:41:54.338Z,5.71
2018-11-22T16:44:29.284Z,5.76
2018-11-22T16:47:02.164Z,5.81
2018-11-22T16:49:37.013Z,5.73
2018-11-22T16:52:11.958Z,5.78
2018-11-22T16:54:46.949Z,5.75
2018-11-22T16:57:23.288Z,5.74
2018-11-22T16:59:57.949Z,5.70
2018-11-22T17:02:32.830Z,5.64
2018-11-22T17:05:07.924Z,5.67
2018-11-22T17:07:42.466Z,5.56
2018-11-22T17:10:19.655Z,5.57
2018-11-22T17:12:55.595Z,5.55
2018-11-22T17:15:34.974Z,5.55
2018-11-22T17:18:10.893Z,5.52
2018-11-22T17:20:45.350Z,5.58
2018-11-22T17:23:19.905Z,5.62
2018-11-22T17:25:52.674Z,5.60
2018-11-22T17:28:51.283Z,5.66
2018-11-22T17:31:25.950Z,5.66
2018-11-22T17:34:00.376Z,5.70
2018-11-22T17:36:34.962Z,5.76
2018-11-22T17:39:15.304Z,5.76
2018-11-22T17:41:48.100Z,5.78
2018-11-22T17:44:22.965Z,5.74
2018-11-22T17:46:58.040Z,5.74
2018-11-22T17:49:33.078Z,5.74
2018-11-22T17:52:08.349Z,5.74
2018-11-22T17:54:43.388Z,5.73
2018-11-22T17:57:18.286Z,5.64
2018-11-22T17:59:53.002Z,5.71
2018-11-22T18:02:27.432Z,5.71
2018-11-22T18:05:02.298Z,5.66
2018-11-22T18:07:36.931Z,5.66
2018-11-22T18:10:11.112Z,5.70
2018-11-22T18:12:46.773Z,5.71
2018-11-22T18:15:20.622Z,5.76
2018-11-22T18:17:55.584Z,5.76
2018-11-22T18:20:31.957Z,5.71
2018-11-22T18:23:11.235Z,5.64
2018-11-22T18:25:41.799Z,5.71
2018-11-22T18:28:16.336Z,5.69
2018-11-22T18:30:50.957Z,5.69
2018-11-22T18:33:25.572Z,5.74
2018-11-22T18:35:58.292Z,5.80
2018-11-22T18:38:51.237Z,5.72
2018-11-22T18:41:25.955Z,5.66
2018-11-22T18:44:00.434Z,5.71
2018-11-22T18:46:35.290Z,5.70
2018-11-22T18:49:10.302Z,5.70
2018-11-22T18:51:45.193Z,5.69
2018-11-22T18:54:20.130Z,5.68
2018-11-22T18:56:54.939Z,5.70
2018-11-22T18:59:27.713Z,5.73
2018-11-22T19:02:00.359Z,5.80
2018-11-22T19:04:35.285Z,5.80
2018-11-22T19:07:10.018Z,5.78
2018-11-22T19:09:44.784Z,5.77
2018-11-22T19:12:19.323Z,5.71
2018-11-22T19:14:54.167Z,5.71
2018-11-22T19:17:30.892Z,5.69
2018-11-22T19:20:09.175Z,5.69
2018-11-22T19:22:42.115Z,5.66
2018-11-22T19:25:16.767Z,5.63
2018-11-22T19:27:51.337Z,5.51
2018-11-22T19:30:37.429Z,5.48
2018-11-22T19:33:11.296Z,5.48
2018-11-22T19:35:47.524Z,5.41
2018-11-22T19:38:20.311Z,5.36
2018-11-22T19:42:01.338Z,5.43
2018-11-22T19:44:36.291Z,5.45
2018-11-22T19:47:11.341Z,5.59
2018-11-22T19:49:46.285Z,5.59
2018-11-22T19:52:21.346Z,5.55
2018-11-22T19:54:56.307Z,5.57
2018-11-22T19:57:31.110Z,5.57
2018-11-22T20:00:06.461Z,5.45
2018-11-22T20:02:40.006Z,5.34
2018-11-22T20:05:16.422Z,5.34
2018-11-22T20:07:50.717Z,5.46
2018-11-22T20:10:25.299Z,5.58
2018-11-22T20:12:58.281Z,5.57
2018-11-22T20:15:33.347Z,5.44
2018-11-22T20:18:09.300Z,5.37
2018-11-22T20:20:49.493Z,5.30
2018-11-22T20:23:21.871Z,5.41
2018-11-22T20:25:55.140Z,5.43
2018-11-22T20:28:30.307Z,5.44
2018-11-22T20:31:04.959Z,5.42
2018-11-22T20:34:00.006Z,5.41
2018-11-22T20:36:36.140Z,5.40
2018-11-22T20:39:15.566Z,5.40
2018-11-22T20:41:48.315Z,5.45
2018-11-22T20:44:23.007Z,5.51
2018-11-22T20:46:57.690Z,5.57
2018-11-22T20:49:32.430Z,5.57
2018-11-22T20:52:05.292Z,5.57
2018-11-22T20:54:39.954Z,5.58
2018-11-22T20:57:14.504Z,5.53
2018-11-22T20:59:49.302Z,5.56
2018-11-22T21:02:23.966Z,5.56
2018-11-22T21:04:58.962Z,5.54
2018-11-22T21:07:33.584Z,5.52
2018-11-22T21:10:09.340Z,5.51
2018-11-22T21:12:42.294Z,5.51
2018-11-22T21:15:27.960Z,5.59
2018-11-22T21:18:04.374Z,5.67
2018-11-22T21:20:40.776Z,5.67
2018-11-22T21:23:15.491Z,5.70
2018-11-22T21:25:50.303Z,5.72
2018-11-22T21:28:24.956Z,5.70
2018-11-22T21:30:59.967Z,5.83
2018-11-22T21:33:38.488Z,5.86
2018-11-22T21:36:12.969Z,5.86
2018-11-22T21:38:48.982Z,5.68
2018-11-22T21:41:23.573Z,5.70
2018-11-22T21:44:01.884Z,5.69
2018-11-22T21:46:36.445Z,5.79
2018-11-22T21:51:56.414Z,5.89
2018-11-22T21:54:31.300Z,5.74
2018-11-22T21:57:05.970Z,5.74
2018-11-22T21:59:40.968Z,5.65
2018-11-22T22:02:15.599Z,5.68
2018-11-22T22:04:48.285Z,5.73
2018-11-22T22:07:21.296Z,5.73
2018-11-22T22:09:56.622Z,5.63
2018-11-22T22:12:31.425Z,5.70
2018-11-22T22:15:05.963Z,5.73
2018-11-22T22:17:41.691Z,5.73
2018-11-22T22:20:22.292Z,5.77
2018-11-22T22:22:55.281Z,5.85
2018-11-22T22:25:30.288Z,5.85
2018-11-22T22:28:03.710Z,5.94
2018-11-22T22:30:38.301Z,5.95
2018-11-22T22:33:11.283Z,5.95
2018-11-22T22:35:46.297Z,5.97
2018-11-22T22:38:21.303Z,5.94
2018-11-22T22:40:56.287Z,5.85
2018-11-22T22:43:29.289Z,5.89
2018-11-22T22:46:04.288Z,5.85
2018-11-22T22:48:38.254Z,5.88
2018-11-22T22:51:12.930Z,5.85
2018-11-22T22:53:50.782Z,5.82
2018-11-22T22:56:25.293Z,5.74
2018-11-22T22:59:08.862Z,5.68
2018-11-22T23:01:43.588Z,5.63
2018-11-22T23:04:18.282Z,5.67
2018-11-22T23:06:50.874Z,5.68
2018-11-22T23:09:25.448Z,5.75
2018-11-22T23:12:00.288Z,5.76
2018-11-22T23:14:35.232Z,5.72
2018-11-22T23:17:09.339Z,5.73
2018-11-22T23:19:43.794Z,5.65
2018-11-22T23:22:18.769Z,5.61
2018-11-22T23:24:51.405Z,5.72
2018-11-22T23:27:26.280Z,5.72
2018-11-22T23:30:01.276Z,5.72
2018-11-22T23:32:34.287Z,5.70
2018-11-22T23:35:09.296Z,5.75
2018-11-22T23:37:42.285Z,5.73
2018-11-22T23:40:18.351Z,5.77
2018-11-22T23:42:53.442Z,5.77
2018-11-22T23:45:29.444Z,5.88
2018-11-22T23:48:04.293Z,5.90
2018-11-22T23:50:38.789Z,5.90
2018-11-22T23:53:13.587Z,5.85
2018-11-22T23:55:48.298Z,6.00
2018-11-22T23:58:20.879Z,6.00
